Time;durP1;ratioP1;P1;durP2;ratioP2;P2;SDS_P1;SDS_P2;PMS_P1;PMS_P2;Temp;Humidity;BMP_temperature;BMP_pressure;BME280_temperature;BME280_humidity;BME280_pressure;Samples;Min_cycle;Max_cycle;Signal;HPM_P1;HPM_P2
2022/10/29 00:00:37;;;;;;;12.45;5.10;;;14.20;99.90;;;;;;4341913;28;10020726;-78
2022/10/29 00:03:03;;;;;;;11.30;5.63;;;14.20;99.90;;;;;;5032937;28;20160;-78
2022/10/29 00:05:28;;;;;;;10.40;5.25;;;14.10;99.90;;;;;;5033942;28;20485;-78
2022/10/29 00:07:54;;;;;;;13.98;5.32;;;14.10;99.90;;;;;;5034569;28;20386;-78
2022/10/29 00:10:19;;;;;;;13.10;6.18;;;14.10;99.90;;;;;;5034863;28;20056;-78
2022/10/29 00:12:45;;;;;;;14.20;6.10;;;14.10;99.90;;;;;;5028902;28;20032;-78
2022/10/29 00:15:11;;;;;;;18.60;6.50;;;14.10;99.90;;;;;;5038349;28;20037;-78
2022/10/29 00:17:36;;;;;;;15.73;7.07;;;14.10;99.90;;;;;;5032440;28;20052;-78
2022/10/29 00:20:02;;;;;;;14.55;6.70;;;14.10;99.90;;;;;;5029445;28;20163;-78
2022/10/29 00:22:28;;;;;;;16.00;6.53;;;14.10;99.90;;;;;;5041969;28;20036;-78
2022/10/29 00:24:54;;;;;;;12.05;6.60;;;14.10;99.90;;;;;;5033866;28;20024;-78
2022/10/29 00:27:19;;;;;;;17.48;6.60;;;14.10;99.90;;;;;;5034385;28;20021;-78
2022/10/29 00:29:45;;;;;;;8.48;5.80;;;14.10;99.90;;;;;;5028710;28;20081;-78
2022/10/29 00:32:11;;;;;;;13.35;6.05;;;14.10;99.90;;;;;;5036085;28;20379;-78
2022/10/29 00:34:37;;;;;;;11.35;5.97;;;14.10;99.90;;;;;;5032941;28;20040;-78
2022/10/29 00:37:03;;;;;;;10.10;5.80;;;14.10;99.90;;;;;;5029274;28;20029;-78
2022/10/29 00:39:31;;;;;;;13.75;5.97;;;14.10;99.90;;;;;;5027563;28;20032;-78
2022/10/29 00:41:58;;;;;;;9.27;5.43;;;14.10;99.90;;;;;;5027821;28;20026;-78
2022/10/29 00:44:28;;;;;;;11.48;5.43;;;14.10;99.90;;;;;;5035409;28;20091;-78
2022/10/29 00:47:18;;;;;;;11.70;5.57;;;14.00;99.90;;;;;;5035322;28;20374;-78
2022/10/29 00:49:47;;;;;;;14.18;6.20;;;14.00;99.90;;;;;;5027237;28;20020;-78
2022/10/29 00:52:13;;;;;;;9.95;5.93;;;14.00;99.90;;;;;;5031935;28;20330;-78
2022/10/29 00:54:42;;;;;;;11.82;5.60;;;14.00;99.90;;;;;;5030705;28;20025;-78
2022/10/29 00:57:20;;;;;;;9.38;5.30;;;14.00;99.90;;;;;;5029258;28;20025;-78
2022/10/29 00:59:48;;;;;;;11.95;5.15;;;14.00;99.90;;;;;;5034429;28;20025;-79
2022/10/29 01:02:14;;;;;;;15.57;6.13;;;14.00;99.90;;;;;;5026713;28;20032;-78
2022/10/29 01:04:40;;;;;;;12.60;6.13;;;13.90;99.90;;;;;;5025916;28;20411;-79
2022/10/29 01:07:06;;;;;;;12.63;5.68;;;13.90;99.90;;;;;;5033585;28;20512;-78
2022/10/29 01:09:32;;;;;;;9.88;5.60;;;13.90;99.90;;;;;;5036659;28;20053;-78
2022/10/29 01:12:28;;;;;;;8.95;5.65;;;13.90;99.90;;;;;;5023334;28;20063;-78
2022/10/29 01:15:11;;;;;;;12.07;5.15;;;14.00;99.90;;;;;;5022871;28;20025;-78
2022/10/29 01:17:46;;;;;;;10.07;5.22;;;14.00;99.90;;;;;;5034953;28;20523;-78
2022/10/29 01:20:20;;;;;;;11.07;5.50;;;14.00;99.90;;;;;;5035684;28;20041;-79
2022/10/29 01:22:48;;;;;;;13.70;6.07;;;14.00;99.90;;;;;;5026469;28;20603;-78
2022/10/29 01:25:38;;;;;;;11.73;5.88;;;14.00;99.90;;;;;;5029512;28;20063;-78
2022/10/29 01:28:34;;;;;;;13.45;6.18;;;14.00;99.90;;;;;;5020800;28;20091;-78
2022/10/29 01:31:23;;;;;;;9.45;5.68;;;14.00;99.90;;;;;;5029072;28;20536;-79
2022/10/29 01:34:04;;;;;;;11.63;6.10;;;14.00;99.90;;;;;;5032653;28;20145;-78
2022/10/29 01:36:32;;;;;;;14.00;6.35;;;14.00;99.90;;;;;;5029657;28;20101;-78
2022/10/29 01:39:23;;;;;;;19.00;6.82;;;14.00;99.90;;;;;;5025452;28;20048;-78
2022/10/29 01:42:12;;;;;;;12.30;6.32;;;14.00;99.90;;;;;;5030523;28;20586;-78
2022/10/29 01:45:02;;;;;;;15.98;7.03;;;14.00;99.90;;;;;;5028640;28;20041;-78
2022/10/29 01:47:35;;;;;;;14.15;7.13;;;14.00;99.90;;;;;;5031974;28;20781;-78
2022/10/29 01:50:06;;;;;;;14.13;6.68;;;14.00;99.90;;;;;;5030209;28;20504;-78
2022/10/29 01:52:34;;;;;;;15.23;7.20;;;14.00;99.90;;;;;;5033249;28;20033;-78
2022/10/29 01:55:00;;;;;;;18.25;7.45;;;14.00;99.90;;;;;;5030451;28;20148;-78
2022/10/29 01:57:31;;;;;;;13.50;6.68;;;13.90;99.90;;;;;;5035661;28;20462;-78
2022/10/29 02:00:16;;;;;;;12.65;6.45;;;13.90;99.90;;;;;;5031688;28;20025;-79
2022/10/29 02:03:00;;;;;;;12.13;6.20;;;13.90;99.90;;;;;;5035788;28;20026;-78
2022/10/29 02:05:47;;;;;;;13.52;7.00;;;13.90;99.90;;;;;;5029828;28;20028;-78
2022/10/29 02:08:19;;;;;;;13.38;7.00;;;13.90;99.90;;;;;;5038190;28;20021;-79
2022/10/29 02:11:04;;;;;;;15.07;7.43;;;13.80;99.90;;;;;;5027535;28;20026;-79
2022/10/29 02:13:32;;;;;;;14.30;6.68;;;13.80;99.90;;;;;;5026716;28;20041;-78
2022/10/29 02:16:01;;;;;;;15.50;6.85;;;13.80;99.90;;;;;;5026793;28;20148;-78
2022/10/29 02:18:27;;;;;;;18.42;7.50;;;13.80;99.90;;;;;;5028116;28;20040;-78
2022/10/29 02:20:52;;;;;;;14.27;7.30;;;13.70;99.90;;;;;;5027737;28;20022;-78
2022/10/29 02:23:18;;;;;;;15.68;7.00;;;13.70;99.90;;;;;;5026790;28;20396;-78
2022/10/29 02:25:44;;;;;;;13.25;6.65;;;13.70;99.90;;;;;;5030202;28;20029;-78
2022/10/29 02:28:09;;;;;;;13.90;7.28;;;13.70;99.90;;;;;;5029088;28;20048;-78
2022/10/29 02:30:35;;;;;;;13.27;6.82;;;13.70;99.90;;;;;;5032612;28;20493;-78
2022/10/29 02:33:00;;;;;;;11.70;6.72;;;13.70;99.90;;;;;;5031851;28;20037;-79
2022/10/29 02:35:26;;;;;;;12.82;6.63;;;13.60;99.90;;;;;;5030849;28;20107;-78
2022/10/29 02:37:52;;;;;;;11.20;6.45;;;13.70;99.90;;;;;;5030245;28;20108;-78
2022/10/29 02:40:17;;;;;;;12.13;6.65;;;13.60;99.90;;;;;;5031469;28;20018;-78
2022/10/29 02:42:43;;;;;;;13.93;6.70;;;13.60;99.90;;;;;;5028726;28;20025;-78
2022/10/29 02:45:09;;;;;;;16.63;6.85;;;13.60;99.90;;;;;;5034320;28;20027;-78
2022/10/29 02:47:35;;;;;;;12.52;7.00;;;13.60;99.90;;;;;;5030407;28;20033;-78
2022/10/29 02:50:00;;;;;;;12.50;7.05;;;13.60;99.90;;;;;;5042756;28;20041;-79
2022/10/29 02:52:26;;;;;;;14.48;6.68;;;13.60;99.90;;;;;;5028123;28;20032;-78
2022/10/29 02:54:51;;;;;;;13.93;6.70;;;13.60;99.90;;;;;;5035027;28;20521;-78
2022/10/29 02:57:17;;;;;;;12.95;6.97;;;13.50;99.90;;;;;;5030106;28;20040;-78
2022/10/29 02:59:42;;;;;;;11.82;6.78;;;13.50;99.90;;;;;;5041343;28;20017;-78
2022/10/29 03:02:08;;;;;;;20.70;7.95;;;13.50;99.90;;;;;;5034114;28;20493;-78
2022/10/29 03:04:34;;;;;;;15.48;7.68;;;13.50;99.90;;;;;;5030945;28;20038;-78
2022/10/29 03:07:00;;;;;;;16.60;8.15;;;13.50;99.90;;;;;;5027965;28;20029;-79
2022/10/29 03:09:26;;;;;;;19.73;7.50;;;13.50;99.90;;;;;;5030027;28;20087;-78
2022/10/29 03:11:52;;;;;;;19.05;7.97;;;13.50;99.90;;;;;;5034521;28;20037;-78
2022/10/29 03:14:17;;;;;;;18.30;8.02;;;13.50;99.90;;;;;;5033627;28;20499;-78
2022/10/29 03:16:43;;;;;;;15.60;7.50;;;13.50;99.90;;;;;;5031468;28;20535;-78
2022/10/29 03:19:09;;;;;;;11.73;6.68;;;13.40;99.90;;;;;;5029466;28;20023;-78
2022/10/29 03:21:34;;;;;;;18.63;7.50;;;13.50;99.90;;;;;;5036345;28;20033;-78
2022/10/29 03:24:00;;;;;;;20.35;8.45;;;13.50;99.90;;;;;;5029951;28;20022;-78
2022/10/29 03:26:25;;;;;;;22.48;9.50;;;13.50;99.90;;;;;;5035402;28;20037;-78
2022/10/29 03:28:51;;;;;;;14.00;7.97;;;13.50;99.90;;;;;;5034950;28;20033;-79
2022/10/29 03:31:17;;;;;;;16.70;8.20;;;13.50;99.90;;;;;;5035510;28;20083;-78
2022/10/29 03:33:42;;;;;;;19.85;9.77;;;13.50;99.90;;;;;;5029497;28;20145;-78
2022/10/29 03:36:08;;;;;;;31.67;10.10;;;13.50;99.90;;;;;;5029258;28;21917;-78
2022/10/29 03:38:34;;;;;;;15.13;8.13;;;13.50;99.90;;;;;;5033318;28;20025;-78
2022/10/29 03:41:00;;;;;;;17.17;8.88;;;13.50;99.90;;;;;;5041691;28;20041;-78
2022/10/29 03:43:26;;;;;;;18.33;8.88;;;13.60;99.90;;;;;;5028860;28;20122;-78
2022/10/29 03:45:53;;;;;;;22.83;9.32;;;13.50;99.90;;;;;;5028630;28;20055;-78
2022/10/29 03:48:19;;;;;;;16.88;9.07;;;13.50;99.90;;;;;;5031807;28;20029;-79
2022/10/29 03:51:04;;;;;;;19.98;9.50;;;13.50;99.90;;;;;;5032855;28;20122;-78
2022/10/29 03:53:30;;;;;;;23.48;9.90;;;13.50;99.90;;;;;;5026833;28;20048;-78
2022/10/29 03:55:56;;;;;;;21.05;9.18;;;13.50;99.90;;;;;;5032558;28;21347;-78
2022/10/29 03:58:23;;;;;;;13.45;8.35;;;13.40;99.90;;;;;;5031102;28;20021;-78
2022/10/29 04:01:03;;;;;;;12.07;7.70;;;13.40;99.90;;;;;;5036665;28;20091;-79
2022/10/29 04:03:30;;;;;;;14.38;8.07;;;13.40;99.90;;;;;;5037281;28;20078;-78
2022/10/29 04:05:57;;;;;;;13.20;7.30;;;13.30;99.90;;;;;;5033566;28;20017;-78
2022/10/29 04:08:23;;;;;;;16.52;7.95;;;13.40;99.90;;;;;;5028622;28;20044;-78
2022/10/29 04:10:49;;;;;;;15.73;6.80;;;13.30;99.90;;;;;;5034157;28;20029;-78
2022/10/29 04:13:16;;;;;;;15.57;6.85;;;13.30;99.90;;;;;;5026546;28;20029;-78
2022/10/29 04:15:42;;;;;;;20.23;8.70;;;13.20;99.90;;;;;;5032643;28;20037;-78
2022/10/29 04:18:08;;;;;;;18.60;8.90;;;13.20;99.90;;;;;;5027059;28;20012;-79
2022/10/29 04:20:35;;;;;;;17.92;9.13;;;13.20;99.90;;;;;;5029613;28;20087;-79
2022/10/29 04:23:00;;;;;;;19.50;9.50;;;13.20;99.90;;;;;;5030824;28;20505;-79
2022/10/29 04:25:26;;;;;;;21.02;9.52;;;13.20;99.90;;;;;;5043706;28;20037;-79
2022/10/29 04:27:55;;;;;;;20.20;8.60;;;13.20;99.90;;;;;;5024376;28;20036;-79
2022/10/29 04:30:22;;;;;;;17.15;9.07;;;13.20;99.90;;;;;;5025767;28;20853;-79
2022/10/29 04:32:48;;;;;;;15.77;9.05;;;13.20;99.90;;;;;;5025339;28;20367;-79
2022/10/29 04:35:13;;;;;;;21.77;9.15;;;13.20;99.90;;;;;;5027592;28;20029;-79
2022/10/29 04:37:39;;;;;;;13.80;8.60;;;13.20;99.90;;;;;;5033832;28;20082;-79
2022/10/29 04:40:05;;;;;;;18.65;8.45;;;13.20;99.90;;;;;;5032020;28;20112;-79
2022/10/29 04:42:40;;;;;;;15.63;8.13;;;13.20;99.90;;;;;;5027567;28;20045;-79
2022/10/29 04:45:07;;;;;;;12.52;7.80;;;13.10;99.90;;;;;;5028993;28;20022;-80
2022/10/29 04:47:33;;;;;;;16.30;8.63;;;13.00;99.90;;;;;;5018638;28;20044;-80
2022/10/29 04:49:59;;;;;;;19.83;10.13;;;13.00;99.90;;;;;;5030863;28;20033;-79
2022/10/29 04:52:25;;;;;;;16.73;8.98;;;13.00;99.90;;;;;;5030477;28;20035;-79
2022/10/29 04:54:51;;;;;;;21.75;10.27;;;13.00;99.90;;;;;;5033358;28;20029;-79
2022/10/29 04:57:17;;;;;;;18.52;9.45;;;12.90;99.90;;;;;;5028750;28;20493;-79
2022/10/29 04:59:43;;;;;;;19.30;10.23;;;12.90;99.90;;;;;;5026683;28;20040;-79
2022/10/29 05:02:09;;;;;;;18.73;10.85;;;12.90;99.90;;;;;;5026972;28;20509;-79
2022/10/29 05:04:35;;;;;;;19.33;10.77;;;12.90;99.90;;;;;;5034876;28;20652;-79
2022/10/29 05:07:01;;;;;;;19.00;9.95;;;12.90;99.90;;;;;;5030745;28;20037;-79
2022/10/29 05:09:26;;;;;;;20.05;10.63;;;12.80;99.90;;;;;;5029913;28;20025;-79
2022/10/29 05:11:52;;;;;;;20.15;10.00;;;12.80;99.90;;;;;;5027045;28;20116;-79
2022/10/29 05:14:17;;;;;;;16.13;10.05;;;12.70;99.90;;;;;;5028594;28;20033;-79
2022/10/29 05:16:43;;;;;;;16.90;9.93;;;12.70;99.90;;;;;;5032877;28;20025;-79
2022/10/29 05:19:09;;;;;;;17.67;9.85;;;12.70;99.90;;;;;;5026500;28;20431;-79
2022/10/29 05:21:35;;;;;;;17.40;9.60;;;12.70;99.90;;;;;;5036251;28;20193;-79
2022/10/29 05:24:00;;;;;;;18.15;10.00;;;12.70;99.90;;;;;;5026434;28;20029;-79
2022/10/29 05:26:28;;;;;;;18.17;9.15;;;12.70;99.90;;;;;;5029972;28;20039;-79
2022/10/29 05:28:54;;;;;;;15.38;9.07;;;12.60;99.90;;;;;;5036720;28;20086;-79
2022/10/29 05:31:20;;;;;;;14.35;9.02;;;12.60;99.90;;;;;;5030143;28;22997;-79
2022/10/29 05:33:45;;;;;;;15.13;9.25;;;12.60;99.90;;;;;;5024826;28;20032;-79
2022/10/29 05:36:11;;;;;;;14.60;9.02;;;12.60;99.90;;;;;;5033833;28;20022;-79
2022/10/29 05:38:37;;;;;;;15.43;9.52;;;12.60;99.90;;;;;;5039044;28;20017;-79
2022/10/29 05:41:02;;;;;;;17.42;9.85;;;12.60;99.90;;;;;;5026793;28;20377;-79
2022/10/29 05:43:28;;;;;;;15.40;9.93;;;12.60;99.90;;;;;;5032598;28;20507;-79
2022/10/29 05:45:54;;;;;;;16.80;8.65;;;12.60;99.90;;;;;;5034067;28;20048;-79
2022/10/29 05:48:19;;;;;;;16.35;8.23;;;12.60;99.90;;;;;;5032872;28;20305;-79
2022/10/29 05:50:45;;;;;;;15.00;8.23;;;12.60;99.90;;;;;;5042862;28;20029;-79
2022/10/29 05:53:13;;;;;;;12.80;7.88;;;12.60;99.90;;;;;;5024653;28;20040;-79
2022/10/29 05:55:40;;;;;;;15.48;8.48;;;12.60;99.90;;;;;;5024076;28;20037;-79
2022/10/29 05:58:09;;;;;;;13.32;7.70;;;12.70;99.90;;;;;;5028927;28;20033;-79
2022/10/29 06:00:37;;;;;;;11.32;7.40;;;12.60;99.90;;;;;;5035221;28;20041;-79
2022/10/29 06:03:03;;;;;;;13.40;7.45;;;12.60;99.90;;;;;;5038735;28;20040;-79
2022/10/29 06:05:28;;;;;;;13.32;7.47;;;12.60;99.90;;;;;;5035583;28;20029;-79
2022/10/29 06:07:58;;;;;;;11.80;7.55;;;12.60;99.90;;;;;;5040748;28;20372;-79
2022/10/29 06:10:26;;;;;;;13.07;7.90;;;12.60;99.90;;;;;;5035839;28;20035;-79
2022/10/29 06:12:51;;;;;;;14.30;7.45;;;12.60;99.90;;;;;;5034155;28;20025;-79
2022/10/29 06:15:17;;;;;;;15.43;8.23;;;12.60;99.90;;;;;;5043266;28;20059;-79
2022/10/29 06:17:44;;;;;;;17.23;8.18;;;12.60;99.90;;;;;;5036465;28;20013;-79
2022/10/29 06:20:11;;;;;;;15.40;8.23;;;12.50;99.90;;;;;;5036044;28;20025;-79
2022/10/29 06:22:38;;;;;;;23.25;9.55;;;12.60;99.90;;;;;;5035478;28;20023;-79
2022/10/29 06:25:04;;;;;;;23.83;10.45;;;12.60;99.90;;;;;;5031452;28;20068;-79
2022/10/29 06:27:30;;;;;;;24.77;10.40;;;12.60;99.90;;;;;;5038894;28;20024;-79
2022/10/29 06:29:56;;;;;;;15.98;9.20;;;;;;;;;;5036096;28;20424;-77
2022/10/29 06:32:21;;;;;;;18.17;9.43;;;12.80;99.90;;;;;;5029332;28;20041;-77
2022/10/29 06:34:47;;;;;;;14.38;8.10;;;12.80;99.90;;;;;;5034946;28;20119;-77
2022/10/29 06:37:13;;;;;;;17.25;8.15;;;12.80;99.90;;;;;;5047793;28;20383;-77
2022/10/29 06:39:38;;;;;;;14.32;8.32;;;12.80;99.90;;;;;;5052377;28;20044;-77
2022/10/29 06:42:04;;;;;;;17.23;8.73;;;;;;;;;;5051400;28;20025;-77
2022/10/29 06:44:30;;;;;;;14.32;8.77;;;12.50;99.90;;;;;;5035368;28;20049;-77
2022/10/29 06:46:56;;;;;;;21.92;10.85;;;12.70;99.90;;;;;;5048674;28;20021;-77
2022/10/29 06:49:21;;;;;;;22.52;12.10;;;12.70;99.90;;;;;;5033281;28;20112;-77
2022/10/29 06:51:47;;;;;;;20.33;11.35;;;12.70;99.90;;;;;;5030811;28;20018;-77
2022/10/29 06:54:13;;;;;;;17.40;9.57;;;12.70;99.90;;;;;;5036101;28;20090;-77
2022/10/29 06:56:39;;;;;;;15.55;9.02;;;12.70;99.90;;;;;;5046064;28;20040;-77
2022/10/29 06:59:04;;;;;;;14.10;8.82;;;12.70;99.90;;;;;;5053033;28;20074;-77
2022/10/29 07:01:32;;;;;;;20.80;9.93;;;12.80;99.90;;;;;;5039143;28;20043;-77
2022/10/29 07:03:58;;;;;;;23.27;10.48;;;12.80;99.90;;;;;;5034024;28;20033;-78
2022/10/29 07:06:25;;;;;;;17.45;9.63;;;12.90;99.90;;;;;;5026518;28;20320;-75
2022/10/29 07:08:50;;;;;;;15.75;8.75;;;12.90;99.90;;;;;;5032796;28;20796;-75
2022/10/29 07:11:16;;;;;;;20.48;9.23;;;12.90;99.90;;;;;;5042444;28;20029;-75
2022/10/29 07:13:42;;;;;;;17.15;8.85;;;13.00;99.90;;;;;;5028157;28;20136;-75
2022/10/29 07:16:07;;;;;;;19.25;9.45;;;13.00;99.90;;;;;;5033273;28;20029;-75
2022/10/29 07:18:33;;;;;;;14.45;8.43;;;13.00;99.90;;;;;;5029717;28;20027;-75
2022/10/29 07:21:01;;;;;;;13.65;8.32;;;13.00;99.90;;;;;;5043169;28;20028;-75
2022/10/29 07:23:27;;;;;;;14.02;8.00;;;13.10;99.90;;;;;;5030100;28;20025;-75
2022/10/29 07:25:53;;;;;;;12.70;7.70;;;13.10;99.90;;;;;;5031070;28;20075;-75
2022/10/29 07:28:21;;;;;;;20.33;9.60;;;13.10;99.90;;;;;;5039927;28;20547;-75
2022/10/29 07:30:48;;;;;;;20.73;9.63;;;13.10;99.90;;;;;;5042732;28;20168;-75
2022/10/29 07:33:14;;;;;;;18.35;9.77;;;13.20;99.90;;;;;;5037681;28;20044;-75
2022/10/29 07:35:40;;;;;;;22.67;9.68;;;13.20;99.90;;;;;;5039258;28;20575;-75
2022/10/29 07:38:07;;;;;;;24.60;10.38;;;13.30;99.90;;;;;;5029554;28;20452;-75
2022/10/29 07:40:33;;;;;;;22.35;10.40;;;13.40;99.90;;;;;;5043717;28;20028;-75
2022/10/29 07:42:58;;;;;;;22.50;11.20;;;13.40;99.90;;;;;;5037401;28;20029;-75
2022/10/29 07:45:24;;;;;;;22.52;11.68;;;13.40;99.90;;;;;;5039559;28;20016;-75
2022/10/29 07:48:06;;;;;;;29.33;14.48;;;13.50;99.90;;;;;;5041782;28;20159;-75
2022/10/29 07:50:32;;;;;;;24.92;14.38;;;13.50;99.90;;;;;;5037307;28;20168;-75
2022/10/29 07:53:02;;;;;;;26.75;14.23;;;13.60;99.90;;;;;;5031823;28;20013;-75
2022/10/29 07:55:28;;;;;;;23.90;14.98;;;13.60;99.90;;;;;;5025203;28;20025;-75
2022/10/29 07:58:00;;;;;;;25.98;15.63;;;;;;;;;;5034798;28;20537;-76
2022/10/29 08:00:26;;;;;;;27.02;16.35;;;13.80;99.90;;;;;;5036018;28;20029;-75
2022/10/29 08:02:56;;;;;;;27.02;16.70;;;13.90;99.90;;;;;;5024133;28;20025;-75
2022/10/29 08:05:23;;;;;;;26.70;15.88;;;13.90;99.90;;;;;;5028247;28;20032;-75
2022/10/29 08:07:49;;;;;;;24.02;15.73;;;14.00;99.90;;;;;;5028475;28;20029;-75
2022/10/29 08:10:16;;;;;;;30.50;15.85;;;;;;;;;;5029144;28;20382;-75
2022/10/29 08:12:52;;;;;;;25.25;14.95;;;;;;;;;;5022482;28;20378;-75
2022/10/29 08:15:18;;;;;;;27.83;14.45;;;14.20;99.90;;;;;;5031548;28;20330;-75
2022/10/29 08:17:45;;;;;;;24.95;15.35;;;14.20;99.90;;;;;;4676046;28;10000318;-76
2022/10/29 08:20:11;;;;;;;28.77;16.75;;;14.30;99.90;;;;;;5030900;28;20367;-75
2022/10/29 08:22:37;;;;;;;25.30;14.88;;;14.40;99.90;;;;;;5031027;28;20033;-75
2022/10/29 08:25:03;;;;;;;28.20;15.80;;;14.40;99.90;;;;;;5034488;28;20037;-75
2022/10/29 08:27:28;;;;;;;24.10;14.52;;;14.50;99.90;;;;;;5036647;28;20421;-74
2022/10/29 08:29:54;;;;;;;26.48;13.80;;;14.50;99.90;;;;;;5028139;28;20133;-75
2022/10/29 08:32:19;;;;;;;23.15;13.90;;;14.50;99.90;;;;;;5036298;28;20064;-75
2022/10/29 08:34:45;;;;;;;25.17;15.00;;;14.50;99.90;;;;;;5037237;28;20033;-76
2022/10/29 08:37:10;;;;;;;23.58;14.88;;;14.60;99.90;;;;;;5034028;28;20416;-75
2022/10/29 08:39:36;;;;;;;24.38;13.52;;;14.60;99.90;;;;;;5026085;28;20033;-75
2022/10/29 08:42:33;;;;;;;21.73;10.63;;;14.70;99.90;;;;;;5036153;28;20040;-76
2022/10/29 08:45:01;;;;;;;30.05;10.25;;;14.70;99.90;;;;;;5036106;28;20020;-76
2022/10/29 08:47:31;;;;;;;19.25;9.85;;;14.90;99.90;;;;;;5036511;28;20235;-75
2022/10/29 08:50:14;;;;;;;19.83;10.20;;;14.90;99.90;;;;;;5036559;28;20085;-76
2022/10/29 08:52:43;;;;;;;18.45;8.77;;;15.10;99.90;;;;;;5030292;28;20033;-77
2022/10/29 08:55:17;;;;;;;15.55;8.15;;;;;;;;;;5030677;28;20030;-76
2022/10/29 08:57:50;;;;;;;14.82;8.05;;;15.10;99.90;;;;;;5039511;28;20052;-77
2022/10/29 09:00:21;;;;;;;15.48;8.20;;;15.20;99.90;;;;;;5023117;28;20544;-77
2022/10/29 09:02:52;;;;;;;18.55;8.25;;;15.20;99.90;;;;;;5012054;28;20432;-77
2022/10/29 09:05:23;;;;;;;21.48;8.43;;;15.20;99.90;;;;;;5010607;28;20292;-77
2022/10/29 09:08:27;;;;;;;18.95;7.97;;;15.30;99.90;;;;;;5013638;28;20026;-75
2022/10/29 09:10:55;;;;;;;21.35;8.20;;;15.30;99.90;;;;;;5015457;28;20040;-77
2022/10/29 09:13:45;;;;;;;15.38;7.82;;;15.40;99.90;;;;;;5010940;28;20309;-77
2022/10/29 09:16:34;;;;;;;18.73;8.57;;;15.40;99.90;;;;;;5012575;28;20474;-76
2022/10/29 09:19:09;;;;;;;20.67;10.07;;;15.50;99.90;;;;;;5013535;28;20029;-76
2022/10/29 09:22:00;;;;;;;15.70;8.60;;;15.60;99.90;;;;;;5014482;28;20032;-76
2022/10/29 09:25:06;;;;;;;29.90;15.35;;;15.70;99.90;;;;;;5018707;28;20245;-76
2022/10/29 09:28:10;;;;;;;27.63;14.68;;;15.80;99.90;;;;;;5014518;28;20529;-76
2022/10/29 09:31:01;;;;;;;30.08;15.45;;;15.80;99.90;;;;;;5012361;28;20071;-76
2022/10/29 09:33:28;;;;;;;22.55;11.98;;;15.80;99.90;;;;;;5012688;28;20314;-76
2022/10/29 09:35:56;;;;;;;29.15;9.73;;;15.90;99.90;;;;;;5014025;28;20496;-76
2022/10/29 09:38:31;;;;;;;21.23;9.07;;;15.90;99.90;;;;;;5013986;28;20025;-76
2022/10/29 09:40:59;;;;;;;23.65;9.35;;;16.00;99.90;;;;;;5013746;28;20082;-76
2022/10/29 09:43:30;;;;;;;22.25;10.07;;;16.00;99.90;;;;;;5008227;28;20025;-76
2022/10/29 09:46:15;;;;;;;19.23;8.25;;;16.00;99.90;;;;;;5013692;28;20031;-76
2022/10/29 09:48:46;;;;;;;20.50;8.48;;;16.10;99.90;;;;;;5014113;28;20027;-76
2022/10/29 09:51:40;;;;;;;21.13;7.40;;;16.20;99.90;;;;;;5009689;28;20044;-75
2022/10/29 09:54:06;;;;;;;19.48;7.22;;;16.20;99.90;;;;;;5015434;28;20092;-75
2022/10/29 09:56:31;;;;;;;15.50;6.55;;;16.20;99.90;;;;;;5013255;28;20128;-75
2022/10/29 09:59:16;;;;;;;20.08;7.55;;;16.20;99.90;;;;;;5014483;28;20060;-75
2022/10/29 10:01:41;;;;;;;24.58;8.18;;;16.20;99.90;;;;;;5008647;28;20489;-76
2022/10/29 10:04:20;;;;;;;20.00;7.18;;;16.30;99.90;;;;;;5010989;28;21277;-75
2022/10/29 10:07:07;;;;;;;27.15;7.70;;;16.30;99.90;;;;;;5010268;28;20034;-76
2022/10/29 10:09:55;;;;;;;17.33;7.28;;;16.30;99.90;;;;;;5013387;28;20037;-75
2022/10/29 10:12:26;;;;;;;16.35;7.50;;;16.30;99.90;;;;;;5012152;28;20044;-75
2022/10/29 10:15:27;;;;;;;16.60;7.70;;;16.40;99.90;;;;;;5013189;28;20021;-75
2022/10/29 10:18:04;;;;;;;18.35;7.85;;;16.40;99.90;;;;;;5014733;28;20123;-76
2022/10/29 10:20:35;;;;;;;19.02;7.85;;;16.50;99.90;;;;;;5012910;28;20029;-75
2022/10/29 10:23:18;;;;;;;19.92;7.72;;;16.50;99.90;;;;;;5009468;28;20113;-76
2022/10/29 10:25:43;;;;;;;18.45;6.90;;;16.50;99.90;;;;;;5011886;28;20112;-75
2022/10/29 10:28:24;;;;;;;22.17;7.80;;;16.60;99.90;;;;;;5012328;28;20083;-75
2022/10/29 10:31:14;;;;;;;21.85;7.90;;;16.60;99.90;;;;;;5014833;28;20038;-76
2022/10/29 10:33:48;;;;;;;22.55;7.30;;;;;;;;;;5004859;28;20033;-75
2022/10/29 10:36:14;;;;;;;22.65;7.78;;;16.80;99.90;;;;;;5013274;28;20013;-75
2022/10/29 10:38:45;;;;;;;18.00;7.20;;;17.00;99.90;;;;;;5037272;28;20040;-76
2022/10/29 10:41:13;;;;;;;26.00;6.90;;;17.10;99.90;;;;;;5026736;28;20225;-75
2022/10/29 10:43:46;;;;;;;20.27;7.47;;;17.20;99.90;;;;;;5033990;28;20091;-75
2022/10/29 10:46:42;;;;;;;19.02;7.47;;;17.30;99.90;;;;;;5031738;28;20025;-75
2022/10/29 10:49:10;;;;;;;17.15;7.35;;;17.40;99.90;;;;;;5024966;28;20111;-74
2022/10/29 10:51:47;;;;;;;16.63;7.15;;;17.40;99.90;;;;;;5028640;28;20316;-74
2022/10/29 10:54:35;;;;;;;23.30;7.82;;;17.50;99.90;;;;;;5030920;28;20490;-74
2022/10/29 10:57:19;;;;;;;19.70;8.15;;;17.50;99.90;;;;;;5030627;28;20032;-75
2022/10/29 11:00:04;;;;;;;21.73;7.70;;;17.60;99.90;;;;;;5033237;28;20017;-75
2022/10/29 11:02:33;;;;;;;21.20;8.02;;;;;;;;;;5037362;28;20038;-75
2022/10/29 11:05:21;;;;;;;24.35;8.75;;;17.80;99.90;;;;;;5034197;28;20318;-75
2022/10/29 11:07:49;;;;;;;20.13;7.65;;;17.90;99.90;;;;;;5031384;28;20061;-76
2022/10/29 11:10:17;;;;;;;24.05;8.15;;;17.90;99.90;;;;;;5030017;28;20068;-75
2022/10/29 11:12:52;;;;;;;24.67;8.38;;;18.00;99.90;;;;;;5026437;28;20041;-75
2022/10/29 11:15:29;;;;;;;23.83;9.38;;;18.00;99.90;;;;;;5034209;28;20044;-75
2022/10/29 11:18:03;;;;;;;30.92;11.05;;;18.00;99.90;;;;;;5031672;28;20412;-75
2022/10/29 11:20:34;;;;;;;26.92;9.77;;;18.00;99.90;;;;;;5033224;28;20048;-75
2022/10/29 11:23:26;;;;;;;19.95;9.10;;;18.00;99.90;;;;;;5023228;28;20029;-78
2022/10/29 11:25:58;;;;;;;32.95;9.73;;;18.00;99.90;;;;;;5030575;28;20037;-78
2022/10/29 11:28:54;;;;;;;23.00;8.50;;;17.90;99.90;;;;;;5029313;28;20284;-78
2022/10/29 11:31:28;;;;;;;22.90;8.38;;;17.80;99.90;;;;;;5030838;28;20120;-78
2022/10/29 11:34:14;;;;;;;20.55;8.27;;;17.80;99.90;;;;;;5028188;28;20059;-79
2022/10/29 11:36:53;;;;;;;35.72;9.65;;;17.70;99.90;;;;;;5021820;28;20489;-79
2022/10/29 11:39:42;;;;;;;19.90;8.07;;;17.70;99.90;;;;;;5039822;28;20029;-78
2022/10/29 11:42:08;;;;;;;27.40;10.00;;;17.70;99.90;;;;;;5025415;28;20032;-80
2022/10/29 11:44:38;;;;;;;20.98;9.32;;;17.70;99.90;;;;;;5022325;28;20037;-76
2022/10/29 11:47:08;;;;;;;25.30;8.93;;;17.70;99.90;;;;;;4333962;28;10001068;-77
2022/10/29 11:49:49;;;;;;;23.95;9.13;;;17.70;99.90;;;;;;5031749;28;20402;-77
2022/10/29 11:52:36;;;;;;;19.45;8.75;;;17.90;99.90;;;;;;5030808;28;20065;-76
2022/10/29 11:55:27;;;;;;;19.63;8.25;;;18.10;99.90;;;;;;5027925;28;20029;-77
2022/10/29 11:58:43;;;;;;;23.70;9.02;;;18.30;99.90;;;;;;5026375;28;20017;-76
2022/10/29 12:01:27;;;;;;;29.98;9.80;;;18.30;99.90;;;;;;5028479;28;20219;-76
2022/10/29 12:04:15;;;;;;;20.73;9.85;;;18.30;99.90;;;;;;5024424;28;20249;-76
2022/10/29 12:06:58;;;;;;;20.83;8.77;;;18.30;99.90;;;;;;5029272;28;20052;-76
2022/10/29 12:09:31;;;;;;;;;;;18.30;99.90;;;;;;5036618;28;20039;-76
2022/10/29 12:12:07;;;;;;;19.45;9.73;;;18.30;99.90;;;;;;5026019;28;19913;-77
2022/10/29 12:14:56;;;;;;;22.73;9.52;;;18.30;99.90;;;;;;5039927;28;20033;-76
2022/10/29 12:17:30;;;;;;;22.75;9.38;;;18.30;99.90;;;;;;5038820;28;20397;-77
2022/10/29 12:20:00;;;;;;;25.02;9.20;;;18.30;99.90;;;;;;5030177;28;20489;-77
2022/10/29 12:22:36;;;;;;;22.58;9.23;;;18.30;99.90;;;;;;5029450;28;20026;-77
2022/10/29 12:25:16;;;;;;;22.10;9.02;;;18.30;99.90;;;;;;5039688;28;20029;-77
2022/10/29 12:27:45;;;;;;;22.27;8.18;;;18.20;99.90;;;;;;5036798;28;20436;-77
2022/10/29 12:30:14;;;;;;;23.60;8.85;;;18.20;99.90;;;;;;5029756;28;20099;-77
2022/10/29 12:33:04;;;;;;;32.42;8.60;;;18.20;99.90;;;;;;5040852;28;20035;-76
2022/10/29 12:35:42;;;;;;;16.85;8.10;;;18.20;99.90;;;;;;5034901;28;20021;-77
2022/10/29 12:38:28;;;;;;;20.63;7.70;;;18.30;99.90;;;;;;5031679;28;20064;-77
2022/10/29 12:41:01;;;;;;;15.77;7.68;;;18.30;99.90;;;;;;5027899;28;20040;-77
2022/10/29 12:43:29;;;;;;;26.27;9.43;;;;;;;;;;5034488;28;20036;-77
2022/10/29 12:46:16;;;;;;;27.10;8.27;;;18.50;99.90;;;;;;5040842;28;20055;-77
2022/10/29 12:49:02;;;;;;;20.23;8.07;;;18.50;99.90;;;;;;5031269;28;20452;-77
2022/10/29 12:51:50;;;;;;;25.58;8.02;;;18.50;99.90;;;;;;5026578;28;20036;-77
2022/10/29 12:54:35;;;;;;;22.98;8.40;;;18.60;99.90;;;;;;5034411;28;20044;-77
2022/10/29 12:57:18;;;;;;;25.52;8.73;;;18.60;99.90;;;;;;5028017;28;20032;-77
2022/10/29 12:59:44;;;;;;;20.95;8.68;;;18.60;99.90;;;;;;5040638;28;20115;-77